createdAt,value
2019-04-26T00:01:04.243Z,53.01
2019-04-26T00:04:06.474Z,53.02
2019-04-26T00:07:08.532Z,53.11
2019-04-26T00:10:13.891Z,52.99
2019-04-26T00:13:20.568Z,53.18
2019-04-26T00:16:33.548Z,53.26
2019-04-26T00:19:35.783Z,53.44
2019-04-26T00:22:37.980Z,53.42
2019-04-26T00:25:39.879Z,53.43
2019-04-26T00:28:41.817Z,53.54
2019-04-26T00:31:43.838Z,53.75
2019-04-26T00:34:45.792Z,53.77
2019-04-26T00:37:47.855Z,53.82
2019-04-26T00:40:50.869Z,53.78
2019-04-26T00:43:53.023Z,53.83
2019-04-26T00:46:56.308Z,54.94
2019-04-26T00:49:58.971Z,55.64
2019-04-26T00:53:01.790Z,55.87
2019-04-26T00:56:05.570Z,56.04
2019-04-26T00:59:09.431Z,56.13
2019-04-26T01:02:14.134Z,55.77
2019-04-26T01:05:17.078Z,55.81
2019-04-26T01:08:19.275Z,56.54
2019-04-26T01:11:21.815Z,57.08
2019-04-26T01:14:24.204Z,57.45
2019-04-26T01:17:26.827Z,57.47
2019-04-26T01:20:31.669Z,57.18
2019-04-26T01:23:37.072Z,56.81
2019-04-26T01:26:39.677Z,56.77
2019-04-26T01:29:44.575Z,56.99
2019-04-26T01:32:47.383Z,56.79
2019-04-26T01:35:50.556Z,56.51
2019-04-26T01:38:56.087Z,56.34
2019-04-26T01:41:59.783Z,56.37
2019-04-26T01:45:11.587Z,56.56
2019-04-26T01:48:35.761Z,56.82
2019-04-26T01:51:53.553Z,56.88
2019-04-26T01:54:55.474Z,57.29
2019-04-26T01:58:01.072Z,58.17
2019-04-26T02:01:08.866Z,58.73
2019-04-26T02:04:11.156Z,59.26
2019-04-26T02:07:15.436Z,59.12
2019-04-26T02:10:20.926Z,58.82
2019-04-26T02:13:24.825Z,58.54
2019-04-26T02:16:27.073Z,58.33
2019-04-26T02:19:31.598Z,58.21
2019-04-26T02:22:49.975Z,58.33
2019-04-26T02:25:52.143Z,58.83
2019-04-26T02:28:54.120Z,58.84
2019-04-26T02:31:59.626Z,58.72
2019-04-26T02:35:01.924Z,58.48
2019-04-26T02:38:03.792Z,58.19
2019-04-26T02:41:06.665Z,57.99
2019-04-26T02:44:11.373Z,57.86
2019-04-26T02:47:47.026Z,57.91
2019-04-26T02:50:56.949Z,58.29
2019-04-26T02:54:17.681Z,59.02
2019-04-26T02:57:23.218Z,59.43
2019-04-26T03:00:25.192Z,59.27
2019-04-26T03:03:30.549Z,58.59
2019-04-26T03:06:36.347Z,58.23
2019-04-26T03:09:41.214Z,58.10
2019-04-26T03:12:45.776Z,58.00
2019-04-26T03:15:55.056Z,57.50
2019-04-26T03:19:08.221Z,57.58
2019-04-26T03:22:35.725Z,57.26
2019-04-26T03:25:42.501Z,56.80
2019-04-26T03:28:54.229Z,57.84
2019-04-26T03:32:06.007Z,58.57
2019-04-26T03:35:25.552Z,58.43
2019-04-26T03:38:51.571Z,58.17
2019-04-26T03:42:19.949Z,58.29
2019-04-26T03:45:36.478Z,58.55
2019-04-26T03:48:59.027Z,58.41
2019-04-26T03:52:07.433Z,58.60
2019-04-26T03:55:26.116Z,58.48
2019-04-26T03:58:57.239Z,58.04
2019-04-26T04:02:13.423Z,57.76
2019-04-26T04:05:20.777Z,57.37
2019-04-26T04:08:26.306Z,57.18
2019-04-26T04:11:49.183Z,56.49
2019-04-26T04:15:15.068Z,54.65
2019-04-26T04:18:22.491Z,52.24
2019-04-26T04:21:33.044Z,50.54
2019-04-26T04:24:42.908Z,48.60
2019-04-26T04:27:49.376Z,45.93
2019-04-26T04:30:58.297Z,44.60
2019-04-26T04:34:12.886Z,43.05
2019-04-26T04:37:17.573Z,40.49
2019-04-26T04:40:58.707Z,38.96
2019-04-26T04:44:17.828Z,37.67
2019-04-26T04:47:37.355Z,37.37
2019-04-26T04:50:46.541Z,36.77
2019-04-26T04:54:00.547Z,36.57
2019-04-26T04:57:22.911Z,36.12
2019-04-26T05:00:36.147Z,35.59
2019-04-26T05:03:48.897Z,34.70
2019-04-26T05:07:04.823Z,34.72
2019-04-26T05:10:22.662Z,33.99
2019-04-26T05:13:34.510Z,33.96
2019-04-26T05:17:13.954Z,33.14
2019-04-26T05:20:37.780Z,33.63
2019-04-26T05:23:58.761Z,34.86
2019-04-26T05:27:21.307Z,35.27
2019-04-26T05:30:34.859Z,34.44
2019-04-26T05:34:06.069Z,34.23
2019-04-26T05:37:30.082Z,33.16
2019-04-26T05:40:41.298Z,32.38
2019-04-26T05:43:56.018Z,32.38
2019-04-26T05:47:27.270Z,31.41
2019-04-26T05:50:50.766Z,31.56
2019-04-26T05:54:38.436Z,31.50
2019-04-26T05:57:58.580Z,31.78
2019-04-26T06:01:51.656Z,31.10
2019-04-26T06:05:25.441Z,31.55
2019-04-26T06:09:08.838Z,31.17
2019-04-26T06:12:19.026Z,30.60
2019-04-26T06:15:41.757Z,29.69
2019-04-26T06:18:52.176Z,29.93
2019-04-26T06:22:02.175Z,29.33
2019-04-26T06:25:27.640Z,28.72
2019-04-26T06:28:37.573Z,28.31
2019-04-26T06:31:46.130Z,28.70
2019-04-26T06:34:55.092Z,29.03
2019-04-26T06:38:43.615Z,28.75
2019-04-26T06:42:09.197Z,27.37
2019-04-26T06:45:40.275Z,28.20
2019-04-26T06:49:12.136Z,28.09
2019-04-26T06:52:17.741Z,28.72
2019-04-26T06:55:23.326Z,29.09
2019-04-26T06:58:44.353Z,29.42
2019-04-26T07:01:49.878Z,28.14
2019-04-26T07:05:15.315Z,28.04
2019-04-26T07:08:26.948Z,27.38
2019-04-26T07:12:02.884Z,27.14
2019-04-26T07:15:28.741Z,28.06
2019-04-26T07:18:33.179Z,27.91
2019-04-26T07:22:11.217Z,27.41
2019-04-26T07:25:24.853Z,27.40
2019-04-26T07:28:50.246Z,27.85
2019-04-26T07:32:15.593Z,27.18
2019-04-26T07:35:30.536Z,27.23
2019-04-26T07:39:10.524Z,27.60
2019-04-26T07:42:45.418Z,27.08
2019-04-26T07:46:10.742Z,27.84
2019-04-26T07:49:28.678Z,26.84
2019-04-26T07:52:59.989Z,27.71
2019-04-26T07:56:05.517Z,27.87
2019-04-26T07:59:43.456Z,27.91
2019-04-26T08:03:02.524Z,27.59
2019-04-26T08:06:16.899Z,28.68
2019-04-26T08:09:27.047Z,29.37
2019-04-26T08:12:29.266Z,28.88
2019-04-26T08:15:42.762Z,28.81
2019-04-26T08:18:55.914Z,29.08
2019-04-26T08:22:14.834Z,28.29
2019-04-26T08:25:08.508Z,29.24
2019-04-26T08:28:14.305Z,29.92
2019-04-26T08:31:21.154Z,29.31
2019-04-26T08:34:29.639Z,29.67
2019-04-26T08:37:46.919Z,30.42
2019-04-26T08:40:49.508Z,31.25
2019-04-26T08:44:11.322Z,31.90
2019-04-26T08:47:35.667Z,31.06
2019-04-26T08:50:42.277Z,31.03
2019-04-26T08:53:45.249Z,32.08
2019-04-26T08:56:50.829Z,32.30
2019-04-26T08:59:56.358Z,32.39
2019-04-26T09:03:11.740Z,31.34
2019-04-26T09:06:17.733Z,33.04
2019-04-26T09:09:25.063Z,33.18
2019-04-26T09:12:30.602Z,34.05
2019-04-26T09:15:52.703Z,33.41
2019-04-26T09:18:59.412Z,34.46
2019-04-26T09:22:12.471Z,33.99
2019-04-26T09:25:07.395Z,34.01
2019-04-26T09:28:17.245Z,35.12
2019-04-26T09:31:24.140Z,35.90
2019-04-26T09:34:27.998Z,35.92
2019-04-26T09:37:29.993Z,34.50
2019-04-26T09:40:31.964Z,36.62
2019-04-26T09:43:35.773Z,35.04
2019-04-26T09:46:39.740Z,33.90
2019-04-26T09:49:59.900Z,34.75
2019-04-26T09:53:01.826Z,35.81
2019-04-26T09:56:03.872Z,35.27
2019-04-26T09:59:06.736Z,35.14
2019-04-26T10:02:09.742Z,36.33
2019-04-26T10:05:13.596Z,36.07
2019-04-26T10:08:15.698Z,35.74
2019-04-26T10:11:19.564Z,35.75
2019-04-26T10:14:29.383Z,36.65
2019-04-26T10:17:33.080Z,36.55
2019-04-26T10:20:37.178Z,36.31
2019-04-26T10:23:39.103Z,36.67
2019-04-26T10:26:41.182Z,35.32
2019-04-26T10:29:44.414Z,34.21
2019-04-26T10:32:46.373Z,34.81
2019-04-26T10:35:48.363Z,35.27
2019-04-26T10:38:54.451Z,33.63
2019-04-26T10:41:56.266Z,32.63
2019-04-26T10:44:58.274Z,33.76
2019-04-26T10:48:00.194Z,33.21
2019-04-26T10:51:03.184Z,34.55
2019-04-26T10:54:07.854Z,33.04
2019-04-26T10:57:23.899Z,32.60
2019-04-26T11:00:48.454Z,34.34
2019-04-26T11:03:48.451Z,33.28
2019-04-26T11:06:50.454Z,31.77
2019-04-26T11:09:52.391Z,32.25
2019-04-26T11:12:54.410Z,32.76
2019-04-26T11:15:56.353Z,33.23
2019-04-26T11:19:01.189Z,31.97
2019-04-26T11:22:03.003Z,35.00
2019-04-26T11:25:05.633Z,33.33
2019-04-26T11:28:07.510Z,33.15
2019-04-26T11:31:09.463Z,35.14
2019-04-26T11:34:11.462Z,32.32
2019-04-26T11:37:17.536Z,33.97
2019-04-26T11:40:17.469Z,32.21
2019-04-26T11:43:20.997Z,31.89
2019-04-26T11:46:29.095Z,30.18
2019-04-26T11:49:27.296Z,29.89
2019-04-26T11:52:32.215Z,29.31
2019-04-26T11:55:33.194Z,29.86
2019-04-26T11:58:35.157Z,31.69
2019-04-26T12:01:40.467Z,30.37
2019-04-26T12:04:49.477Z,30.46
2019-04-26T12:07:51.473Z,29.89
2019-04-26T12:10:54.594Z,29.94
2019-04-26T12:13:59.544Z,29.90
2019-04-26T12:17:01.276Z,31.75
2019-04-26T12:20:06.112Z,32.85
2019-04-26T12:23:08.125Z,31.03
2019-04-26T12:26:10.660Z,31.44
2019-04-26T12:29:14.718Z,30.24
2019-04-26T12:32:17.277Z,31.02
2019-04-26T12:35:19.484Z,31.95
2019-04-26T12:38:24.165Z,31.19
2019-04-26T12:41:39.911Z,31.38
2019-04-26T12:44:32.192Z,33.59
2019-04-26T12:47:38.630Z,33.51
2019-04-26T12:50:40.933Z,32.26
2019-04-26T12:53:42.894Z,32.77
2019-04-26T12:56:44.753Z,32.37
2019-04-26T12:59:46.779Z,32.41
2019-04-26T13:02:50.086Z,31.81
2019-04-26T13:05:57.790Z,31.28
2019-04-26T13:08:56.630Z,30.63
2019-04-26T13:12:03.270Z,29.85
2019-04-26T13:15:55.941Z,30.11
2019-04-26T13:18:57.831Z,30.08
2019-04-26T13:21:59.744Z,31.62
2019-04-26T13:25:02.198Z,30.71
2019-04-26T13:28:04.136Z,30.35
2019-04-26T13:31:06.127Z,31.30
2019-04-26T13:34:08.019Z,29.51
2019-04-26T13:37:09.989Z,28.84
2019-04-26T13:40:12.214Z,28.54
2019-04-26T13:43:14.858Z,27.32
2019-04-26T13:46:35.163Z,26.18
2019-04-26T13:49:39.094Z,25.62
2019-04-26T13:52:41.009Z,25.33
2019-04-26T13:55:43.020Z,24.58
2019-04-26T13:58:44.988Z,25.11
2019-04-26T14:01:46.917Z,26.04
2019-04-26T14:04:48.870Z,26.35
2019-04-26T14:07:50.789Z,29.50
2019-04-26T14:10:52.874Z,29.30
2019-04-26T14:13:55.389Z,27.26
2019-04-26T14:16:59.006Z,25.73
2019-04-26T14:20:00.979Z,24.67
2019-04-26T14:23:04.689Z,24.02
2019-04-26T14:26:20.138Z,23.78
2019-04-26T14:29:22.167Z,23.32
2019-04-26T14:32:24.325Z,22.91
2019-04-26T14:35:26.742Z,23.72
2019-04-26T14:38:35.670Z,24.27
2019-04-26T14:41:32.671Z,23.94
2019-04-26T14:44:34.999Z,24.13
2019-04-26T14:47:46.723Z,23.38
2019-04-26T14:50:40.824Z,23.79
2019-04-26T14:53:42.756Z,23.87
2019-04-26T14:56:52.085Z,23.47
2019-04-26T14:59:50.362Z,22.28
2019-04-26T15:02:57.146Z,22.30
2019-04-26T15:06:00.888Z,22.63
2019-04-26T15:09:16.819Z,22.06
2019-04-26T15:12:14.018Z,22.45
2019-04-26T15:15:14.313Z,22.53
2019-04-26T15:18:16.239Z,22.01
2019-04-26T15:21:18.157Z,21.64
2019-04-26T15:24:20.100Z,21.71
2019-04-26T15:27:22.161Z,21.70
2019-04-26T15:30:24.030Z,22.28
2019-04-26T15:33:26.080Z,22.50
2019-04-26T15:36:27.981Z,22.34
2019-04-26T15:39:33.102Z,22.65
2019-04-26T15:42:36.997Z,23.28
2019-04-26T15:45:43.829Z,24.05
2019-04-26T15:48:54.480Z,24.63
2019-04-26T15:51:59.763Z,25.14
2019-04-26T15:55:04.131Z,25.41
2019-04-26T15:58:08.550Z,26.06
2019-04-26T16:01:10.881Z,26.28
2019-04-26T16:04:13.369Z,26.55
2019-04-26T16:07:27.262Z,26.81
2019-04-26T16:10:25.525Z,27.45
2019-04-26T16:13:24.618Z,27.86
2019-04-26T16:16:29.232Z,28.12
2019-04-26T16:19:30.461Z,28.65
2019-04-26T16:22:33.172Z,28.93
2019-04-26T16:25:38.346Z,29.07
2019-04-26T16:28:44.374Z,29.43
2019-04-26T16:32:05.043Z,29.71
2019-04-26T16:35:07.133Z,30.01
2019-04-26T16:38:27.559Z,30.55
2019-04-26T16:41:35.532Z,30.82
2019-04-26T16:44:33.590Z,31.18
2019-04-26T16:47:45.014Z,31.83
2019-04-26T16:50:44.241Z,31.79
2019-04-26T16:53:58.830Z,32.24
2019-04-26T16:56:47.384Z,32.58
2019-04-26T16:59:56.929Z,32.92
2019-04-26T17:02:53.159Z,33.08
2019-04-26T17:06:04.906Z,33.31
2019-04-26T17:09:01.597Z,33.56
2019-04-26T17:12:02.947Z,33.78
2019-04-26T17:15:06.562Z,33.95
2019-04-26T17:18:08.654Z,34.09
2019-04-26T17:21:12.696Z,34.28
2019-04-26T17:24:33.632Z,34.53
2019-04-26T17:27:35.591Z,34.54
2019-04-26T17:30:41.302Z,34.71
2019-04-26T17:33:41.535Z,34.86
2019-04-26T17:36:46.443Z,34.91
2019-04-26T17:39:51.247Z,35.06
2019-04-26T17:42:51.241Z,35.18
2019-04-26T17:45:53.721Z,35.19
2019-04-26T17:48:55.660Z,35.63
2019-04-26T17:51:58.618Z,36.26
2019-04-26T17:55:01.615Z,36.45
2019-04-26T17:58:11.950Z,36.30
2019-04-26T18:01:12.171Z,36.57
2019-04-26T18:04:14.077Z,37.04
2019-04-26T18:07:39.307Z,37.28
2019-04-26T18:10:20.826Z,37.25
2019-04-26T18:13:23.665Z,37.33
2019-04-26T18:16:29.443Z,37.47
2019-04-26T18:19:49.863Z,37.70
2019-04-26T18:23:05.180Z,37.77
2019-04-26T18:26:06.442Z,37.92
2019-04-26T18:29:08.408Z,38.08
2019-04-26T18:32:10.459Z,38.12
2019-04-26T18:35:16.664Z,38.31
2019-04-26T18:38:17.340Z,38.10
2019-04-26T18:41:23.061Z,38.10
2019-04-26T18:44:35.884Z,38.08
2019-04-26T18:47:29.616Z,38.08
2019-04-26T18:50:34.284Z,38.44
2019-04-26T18:53:41.281Z,38.52
2019-04-26T18:56:46.922Z,39.48
2019-04-26T18:59:51.063Z,39.48
2019-04-26T19:02:55.439Z,39.62
2019-04-26T19:05:58.464Z,39.55
2019-04-26T19:09:05.861Z,39.63
2019-04-26T19:12:11.485Z,39.70
2019-04-26T19:15:40.236Z,39.53
2019-04-26T19:18:44.970Z,39.29
2019-04-26T19:21:54.433Z,39.28
2019-04-26T19:24:57.476Z,39.49
2019-04-26T19:28:06.608Z,39.76
2019-04-26T19:31:03.261Z,40.04
2019-04-26T19:34:06.346Z,40.44
2019-04-26T19:37:08.269Z,40.61
2019-04-26T19:40:12.379Z,40.62
2019-04-26T19:43:28.123Z,40.56
2019-04-26T19:46:25.323Z,40.65
2019-04-26T19:49:43.381Z,40.90
2019-04-26T19:52:57.380Z,41.05
2019-04-26T19:56:17.361Z,41.44
2019-04-26T19:59:21.915Z,41.57
2019-04-26T20:02:26.871Z,41.83
2019-04-26T20:05:29.333Z,41.78
2019-04-26T20:08:35.361Z,41.65
2019-04-26T20:11:38.188Z,41.62
2019-04-26T20:14:49.212Z,41.72
2019-04-26T20:17:52.476Z,41.74
2019-04-26T20:20:52.112Z,42.17
2019-04-26T20:23:55.921Z,42.34
2019-04-26T20:26:57.842Z,42.67
2019-04-26T20:30:03.281Z,42.74
2019-04-26T20:33:05.193Z,43.10
2019-04-26T20:36:08.445Z,43.81
2019-04-26T20:39:12.438Z,45.86
2019-04-26T20:42:14.788Z,46.56
2019-04-26T20:45:17.293Z,46.34
2019-04-26T20:48:19.856Z,46.21
2019-04-26T20:51:24.984Z,45.92
2019-04-26T20:54:27.032Z,45.52
2019-04-26T20:57:38.539Z,45.27
2019-04-26T21:01:06.363Z,45.02
2019-04-26T21:04:09.914Z,44.83
2019-04-26T21:07:14.072Z,44.90
2019-04-26T21:10:21.998Z,44.98
2019-04-26T21:13:23.760Z,45.44
2019-04-26T21:16:24.384Z,45.82
2019-04-26T21:19:27.348Z,46.07
2019-04-26T21:22:31.592Z,46.77
2019-04-26T21:25:35.666Z,46.94
2019-04-26T21:28:42.604Z,47.09
2019-04-26T21:31:47.773Z,47.34
2019-04-26T21:34:53.763Z,48.05
2019-04-26T21:37:57.383Z,48.72
2019-04-26T21:41:14.081Z,49.00
2019-04-26T21:44:16.431Z,48.93
2019-04-26T21:47:18.340Z,48.62
2019-04-26T21:50:20.339Z,48.50
2019-04-26T21:53:24.074Z,48.70
2019-04-26T21:56:26.053Z,48.57
2019-04-26T21:59:27.988Z,48.68
2019-04-26T22:02:34.756Z,48.89
2019-04-26T22:05:35.296Z,49.19
2019-04-26T22:08:43.592Z,49.48
2019-04-26T22:11:49.443Z,49.58
2019-04-26T22:15:03.548Z,49.55
2019-04-26T22:18:10.205Z,49.34
2019-04-26T22:21:29.844Z,49.32
2019-04-26T22:24:38.145Z,49.20
2019-04-26T22:27:40.304Z,49.20
2019-04-26T22:30:42.221Z,49.22
2019-04-26T22:33:44.665Z,49.20
2019-04-26T22:36:46.910Z,49.16
2019-04-26T22:39:48.943Z,49.45
2019-04-26T22:42:54.328Z,49.62
2019-04-26T22:46:04.968Z,49.82
2019-04-26T22:49:08.019Z,50.18
2019-04-26T22:52:11.138Z,50.37
2019-04-26T22:55:17.601Z,50.41
2019-04-26T22:58:20.604Z,50.56
2019-04-26T23:01:22.829Z,50.61
2019-04-26T23:04:26.536Z,50.77
2019-04-26T23:07:29.984Z,50.87
2019-04-26T23:10:36.739Z,51.18
2019-04-26T23:13:41.254Z,51.43
2019-04-26T23:17:08.047Z,51.74
2019-04-26T23:20:25.202Z,51.91
2019-04-26T23:23:28.913Z,52.53
2019-04-26T23:26:30.829Z,53.08
2019-04-26T23:29:33.677Z,53.19
2019-04-26T23:32:35.833Z,53.26
2019-04-26T23:35:43.773Z,53.47
2019-04-26T23:38:41.639Z,53.57
2019-04-26T23:41:44.816Z,53.35
2019-04-26T23:44:46.739Z,53.44
2019-04-26T23:47:48.599Z,53.38
2019-04-26T23:50:50.533Z,53.59
2019-04-26T23:53:55.037Z,53.82
2019-04-26T23:56:57.899Z,53.79
